sensor_id;sensor_type;location;lat;lon;timestamp;temperature;humidity
20045;DHT22;10183;47.808;9.476;2023-11-22T00:01:26;5.20;99.90
20045;DHT22;10183;47.808;9.476;2023-11-22T00:04:13;5.40;99.90
20045;DHT22;10183;47.808;9.476;2023-11-22T00:06:59;5.30;99.90
20045;DHT22;10183;47.808;9.476;2023-11-22T00:09:44;5.30;99.90
20045;DHT22;10183;47.808;9.476;2023-11-22T00:12:32;5.40;99.90
20045;DHT22;10183;47.808;9.476;2023-11-22T00:15:22;5.40;99.90
20045;DHT22;10183;47.808;9.476;2023-11-22T00:18:08;5.30;99.90
20045;DHT22;10183;47.808;9.476;2023-11-22T00:20:54;5.40;99.90
20045;DHT22;10183;47.808;9.476;2023-11-22T00:23:41;5.40;99.90
20045;DHT22;10183;47.808;9.476;2023-11-22T00:26:28;5.40;99.90
20045;DHT22;10183;47.808;9.476;2023-11-22T00:29:14;5.30;99.90
20045;DHT22;10183;47.808;9.476;2023-11-22T00:32:00;5.40;99.90
20045;DHT22;10183;47.808;9.476;2023-11-22T00:34:46;5.30;99.90
20045;DHT22;10183;47.808;9.476;2023-11-22T00:37:33;5.30;99.90
20045;DHT22;10183;47.808;9.476;2023-11-22T00:40:20;5.30;99.90
20045;DHT22;10183;47.808;9.476;2023-11-22T00:43:06;5.20;99.90
20045;DHT22;10183;47.808;9.476;2023-11-22T00:45:52;5.30;99.90
20045;DHT22;10183;47.808;9.476;2023-11-22T00:48:38;5.30;99.90
20045;DHT22;10183;47.808;9.476;2023-11-22T00:51:25;5.20;99.90
20045;DHT22;10183;47.808;9.476;2023-11-22T00:54:11;5.20;99.90
20045;DHT22;10183;47.808;9.476;2023-11-22T00:56:57;5.30;99.90
20045;DHT22;10183;47.808;9.476;2023-11-22T00:59:43;5.20;99.90
20045;DHT22;10183;47.808;9.476;2023-11-22T01:02:29;5.20;99.90
20045;DHT22;10183;47.808;9.476;2023-11-22T01:05:15;5.20;99.90
20045;DHT22;10183;47.808;9.476;2023-11-22T01:08:01;5.20;99.90
20045;DHT22;10183;47.808;9.476;2023-11-22T01:10:47;5.20;99.90
20045;DHT22;10183;47.808;9.476;2023-11-22T01:13:33;5.20;99.90
20045;DHT22;10183;47.808;9.476;2023-11-22T01:16:26;5.20;99.90
20045;DHT22;10183;47.808;9.476;2023-11-22T01:19:12;5.10;99.90
20045;DHT22;10183;47.808;9.476;2023-11-22T01:21:58;5.10;99.90
20045;DHT22;10183;47.808;9.476;2023-11-22T01:24:44;5.10;99.90
20045;DHT22;10183;47.808;9.476;2023-11-22T01:27:30;5.20;99.90
20045;DHT22;10183;47.808;9.476;2023-11-22T01:30:16;5.10;99.90
20045;DHT22;10183;47.808;9.476;2023-11-22T01:33:04;5.10;99.90
20045;DHT22;10183;47.808;9.476;2023-11-22T01:35:50;5.20;99.90
20045;DHT22;10183;47.808;9.476;2023-11-22T01:38:36;5.20;99.90
20045;DHT22;10183;47.808;9.476;2023-11-22T01:41:24;5.30;99.90
20045;DHT22;10183;47.808;9.476;2023-11-22T01:44:10;5.20;99.90
20045;DHT22;10183;47.808;9.476;2023-11-22T01:46:56;5.20;99.90
20045;DHT22;10183;47.808;9.476;2023-11-22T01:49:43;5.20;99.90
20045;DHT22;10183;47.808;9.476;2023-11-22T01:52:30;5.20;99.90
20045;DHT22;10183;47.808;9.476;2023-11-22T01:55:16;5.20;99.90
20045;DHT22;10183;47.808;9.476;2023-11-22T01:58:02;5.20;99.90
20045;DHT22;10183;47.808;9.476;2023-11-22T02:00:50;5.30;99.90
20045;DHT22;10183;47.808;9.476;2023-11-22T02:03:36;5.20;99.90
20045;DHT22;10183;47.808;9.476;2023-11-22T02:06:22;5.20;99.90
20045;DHT22;10183;47.808;9.476;2023-11-22T02:09:09;5.20;99.90
20045;DHT22;10183;47.808;9.476;2023-11-22T02:11:59;5.20;99.90
20045;DHT22;10183;47.808;9.476;2023-11-22T02:14:45;5.30;99.90
20045;DHT22;10183;47.808;9.476;2023-11-22T02:17:31;5.20;99.90
20045;DHT22;10183;47.808;9.476;2023-11-22T02:20:17;5.20;99.90
20045;DHT22;10183;47.808;9.476;2023-11-22T02:23:08;5.20;99.90
20045;DHT22;10183;47.808;9.476;2023-11-22T02:25:54;5.30;99.90
20045;DHT22;10183;47.808;9.476;2023-11-22T02:28:40;5.30;99.90
20045;DHT22;10183;47.808;9.476;2023-11-22T02:31:26;5.30;99.90
20045;DHT22;10183;47.808;9.476;2023-11-22T02:34:13;5.30;99.90
20045;DHT22;10183;47.808;9.476;2023-11-22T02:37:01;5.30;99.90
20045;DHT22;10183;47.808;9.476;2023-11-22T02:40:05;5.30;99.90
20045;DHT22;10183;47.808;9.476;2023-11-22T02:42:52;5.20;99.90
20045;DHT22;10183;47.808;9.476;2023-11-22T02:45:46;5.30;99.90
20045;DHT22;10183;47.808;9.476;2023-11-22T02:48:33;5.30;99.90
20045;DHT22;10183;47.808;9.476;2023-11-22T02:51:19;5.30;99.90
20045;DHT22;10183;47.808;9.476;2023-11-22T02:54:05;5.30;99.90
20045;DHT22;10183;47.808;9.476;2023-11-22T02:56:51;5.30;99.90
20045;DHT22;10183;47.808;9.476;2023-11-22T02:59:40;5.20;99.90
20045;DHT22;10183;47.808;9.476;2023-11-22T03:02:26;5.30;99.90
20045;DHT22;10183;47.808;9.476;2023-11-22T03:05:13;5.20;99.90
20045;DHT22;10183;47.808;9.476;2023-11-22T03:08:03;5.20;99.90
20045;DHT22;10183;47.808;9.476;2023-11-22T03:10:49;5.20;99.90
20045;DHT22;10183;47.808;9.476;2023-11-22T03:13:36;5.20;99.90
20045;DHT22;10183;47.808;9.476;2023-11-22T03:16:22;5.20;99.90
20045;DHT22;10183;47.808;9.476;2023-11-22T03:19:10;5.30;99.90
20045;DHT22;10183;47.808;9.476;2023-11-22T03:21:56;5.30;99.90
20045;DHT22;10183;47.808;9.476;2023-11-22T03:24:42;5.30;99.90
20045;DHT22;10183;47.808;9.476;2023-11-22T03:27:28;5.40;99.90
20045;DHT22;10183;47.808;9.476;2023-11-22T03:30:14;5.40;99.90
20045;DHT22;10183;47.808;9.476;2023-11-22T03:33:00;5.40;99.90
20045;DHT22;10183;47.808;9.476;2023-11-22T03:35:46;5.40;99.90
20045;DHT22;10183;47.808;9.476;2023-11-22T03:38:32;5.40;99.90
20045;DHT22;10183;47.808;9.476;2023-11-22T03:41:18;5.40;99.90
20045;DHT22;10183;47.808;9.476;2023-11-22T03:44:05;5.40;99.90
20045;DHT22;10183;47.808;9.476;2023-11-22T03:46:54;5.40;99.90
20045;DHT22;10183;47.808;9.476;2023-11-22T03:49:40;5.40;99.90
20045;DHT22;10183;47.808;9.476;2023-11-22T03:52:26;5.40;99.90
20045;DHT22;10183;47.808;9.476;2023-11-22T03:55:15;5.40;99.90
20045;DHT22;10183;47.808;9.476;2023-11-22T03:58:01;5.40;99.90
20045;DHT22;10183;47.808;9.476;2023-11-22T04:00:47;5.30;99.90
20045;DHT22;10183;47.808;9.476;2023-11-22T04:03:33;5.30;99.90
20045;DHT22;10183;47.808;9.476;2023-11-22T04:06:19;5.30;99.90
20045;DHT22;10183;47.808;9.476;2023-11-22T04:09:05;5.30;99.90
20045;DHT22;10183;47.808;9.476;2023-11-22T04:11:51;5.30;99.90
20045;DHT22;10183;47.808;9.476;2023-11-22T04:14:37;5.30;99.90
20045;DHT22;10183;47.808;9.476;2023-11-22T04:17:23;5.30;99.90
20045;DHT22;10183;47.808;9.476;2023-11-22T04:20:10;5.30;99.90
20045;DHT22;10183;47.808;9.476;2023-11-22T04:22:56;5.40;99.90
20045;DHT22;10183;47.808;9.476;2023-11-22T04:25:42;5.50;99.90
20045;DHT22;10183;47.808;9.476;2023-11-22T04:28:29;5.40;99.90
20045;DHT22;10183;47.808;9.476;2023-11-22T04:31:15;5.40;99.90
20045;DHT22;10183;47.808;9.476;2023-11-22T04:34:01;5.40;99.90
20045;DHT22;10183;47.808;9.476;2023-11-22T04:36:48;5.40;99.90
20045;DHT22;10183;47.808;9.476;2023-11-22T04:39:33;5.40;99.90
20045;DHT22;10183;47.808;9.476;2023-11-22T04:42:20;5.30;99.90
20045;DHT22;10183;47.808;9.476;2023-11-22T04:45:06;5.30;99.90
20045;DHT22;10183;47.808;9.476;2023-11-22T04:47:54;5.30;99.90
20045;DHT22;10183;47.808;9.476;2023-11-22T04:50:42;5.20;99.90
20045;DHT22;10183;47.808;9.476;2023-11-22T04:53:28;5.10;99.90
20045;DHT22;10183;47.808;9.476;2023-11-22T04:56:14;5.10;99.90
20045;DHT22;10183;47.808;9.476;2023-11-22T04:59:00;5.00;99.90
20045;DHT22;10183;47.808;9.476;2023-11-22T05:01:46;5.00;99.90
20045;DHT22;10183;47.808;9.476;2023-11-22T05:04:34;4.90;99.90
20045;DHT22;10183;47.808;9.476;2023-11-22T05:07:20;4.80;99.90
20045;DHT22;10183;47.808;9.476;2023-11-22T05:10:06;4.70;99.90
20045;DHT22;10183;47.808;9.476;2023-11-22T05:12:55;4.60;99.90
20045;DHT22;10183;47.808;9.476;2023-11-22T05:15:45;4.50;99.90
20045;DHT22;10183;47.808;9.476;2023-11-22T05:18:31;4.40;99.90
20045;DHT22;10183;47.808;9.476;2023-11-22T05:21:17;4.40;99.90
20045;DHT22;10183;47.808;9.476;2023-11-22T05:24:03;4.40;99.90
20045;DHT22;10183;47.808;9.476;2023-11-22T05:26:49;4.40;99.90
20045;DHT22;10183;47.808;9.476;2023-11-22T05:29:35;4.40;99.90
20045;DHT22;10183;47.808;9.476;2023-11-22T05:32:21;4.30;99.90
20045;DHT22;10183;47.808;9.476;2023-11-22T05:35:07;4.30;99.90
20045;DHT22;10183;47.808;9.476;2023-11-22T05:37:55;4.30;99.90
20045;DHT22;10183;47.808;9.476;2023-11-22T05:40:43;4.20;99.90
20045;DHT22;10183;47.808;9.476;2023-11-22T05:43:29;4.20;99.90
20045;DHT22;10183;47.808;9.476;2023-11-22T05:46:15;4.10;99.90
20045;DHT22;10183;47.808;9.476;2023-11-22T05:49:07;4.00;99.90
20045;DHT22;10183;47.808;9.476;2023-11-22T05:51:53;4.00;99.90
20045;DHT22;10183;47.808;9.476;2023-11-22T05:54:39;3.90;99.90
20045;DHT22;10183;47.808;9.476;2023-11-22T05:57:25;3.90;99.90
20045;DHT22;10183;47.808;9.476;2023-11-22T06:00:11;3.80;99.90
20045;DHT22;10183;47.808;9.476;2023-11-22T06:02:58;3.80;99.90
20045;DHT22;10183;47.808;9.476;2023-11-22T06:05:44;3.80;99.90
20045;DHT22;10183;47.808;9.476;2023-11-22T06:08:30;3.80;99.90
20045;DHT22;10183;47.808;9.476;2023-11-22T06:11:16;3.80;99.90
20045;DHT22;10183;47.808;9.476;2023-11-22T06:14:02;3.80;99.90
20045;DHT22;10183;47.808;9.476;2023-11-22T06:16:48;3.70;99.90
20045;DHT22;10183;47.808;9.476;2023-11-22T06:19:34;3.60;99.90
20045;DHT22;10183;47.808;9.476;2023-11-22T06:22:20;3.60;99.90
20045;DHT22;10183;47.808;9.476;2023-11-22T06:25:10;3.60;99.90
20045;DHT22;10183;47.808;9.476;2023-11-22T06:27:59;3.60;99.90
20045;DHT22;10183;47.808;9.476;2023-11-22T06:30:45;3.50;99.90
20045;DHT22;10183;47.808;9.476;2023-11-22T06:33:31;3.40;99.90
20045;DHT22;10183;47.808;9.476;2023-11-22T06:36:17;3.40;99.90
20045;DHT22;10183;47.808;9.476;2023-11-22T06:39:04;3.40;99.90
20045;DHT22;10183;47.808;9.476;2023-11-22T06:41:51;3.40;99.90
20045;DHT22;10183;47.808;9.476;2023-11-22T06:44:37;3.40;99.90
20045;DHT22;10183;47.808;9.476;2023-11-22T06:47:23;3.40;99.90
20045;DHT22;10183;47.808;9.476;2023-11-22T06:50:09;3.40;99.90
20045;DHT22;10183;47.808;9.476;2023-11-22T06:52:56;3.40;99.90
20045;DHT22;10183;47.808;9.476;2023-11-22T06:55:42;3.40;99.90
20045;DHT22;10183;47.808;9.476;2023-11-22T06:58:28;3.50;99.90
20045;DHT22;10183;47.808;9.476;2023-11-22T07:01:14;3.50;99.90
20045;DHT22;10183;47.808;9.476;2023-11-22T07:04:01;3.50;99.90
20045;DHT22;10183;47.808;9.476;2023-11-22T07:06:49;3.40;99.90
20045;DHT22;10183;47.808;9.476;2023-11-22T07:09:35;3.40;99.90
20045;DHT22;10183;47.808;9.476;2023-11-22T07:12:22;3.40;99.90
20045;DHT22;10183;47.808;9.476;2023-11-22T07:15:08;3.40;99.90
20045;DHT22;10183;47.808;9.476;2023-11-22T07:17:55;3.40;99.90
20045;DHT22;10183;47.808;9.476;2023-11-22T07:20:41;3.40;99.90
20045;DHT22;10183;47.808;9.476;2023-11-22T07:23:28;3.40;99.90
20045;DHT22;10183;47.808;9.476;2023-11-22T07:26:14;3.40;99.90
20045;DHT22;10183;47.808;9.476;2023-11-22T07:29:01;3.50;99.90
20045;DHT22;10183;47.808;9.476;2023-11-22T07:31:46;3.50;99.90
20045;DHT22;10183;47.808;9.476;2023-11-22T07:34:33;3.50;99.90
20045;DHT22;10183;47.808;9.476;2023-11-22T07:37:19;3.40;99.90
20045;DHT22;10183;47.808;9.476;2023-11-22T07:40:07;3.40;99.90
20045;DHT22;10183;47.808;9.476;2023-11-22T07:42:54;3.40;99.90
20045;DHT22;10183;47.808;9.476;2023-11-22T07:45:40;3.40;99.90
20045;DHT22;10183;47.808;9.476;2023-11-22T07:48:26;3.40;99.90
20045;DHT22;10183;47.808;9.476;2023-11-22T07:51:13;3.40;99.90
20045;DHT22;10183;47.808;9.476;2023-11-22T07:54:02;3.30;99.90
20045;DHT22;10183;47.808;9.476;2023-11-22T07:56:49;3.20;99.90
20045;DHT22;10183;47.808;9.476;2023-11-22T07:59:35;3.20;99.90
20045;DHT22;10183;47.808;9.476;2023-11-22T08:02:22;3.20;99.90
20045;DHT22;10183;47.808;9.476;2023-11-22T08:05:08;3.10;99.90
20045;DHT22;10183;47.808;9.476;2023-11-22T08:07:54;3.10;99.90
20045;DHT22;10183;47.808;9.476;2023-11-22T08:10:40;3.20;99.90
20045;DHT22;10183;47.808;9.476;2023-11-22T08:13:28;3.20;99.90
20045;DHT22;10183;47.808;9.476;2023-11-22T08:16:16;3.20;99.90
20045;DHT22;10183;47.808;9.476;2023-11-22T08:19:02;3.20;99.90
20045;DHT22;10183;47.808;9.476;2023-11-22T08:21:48;3.10;99.90
20045;DHT22;10183;47.808;9.476;2023-11-22T08:24:34;3.00;99.90
20045;DHT22;10183;47.808;9.476;2023-11-22T08:27:20;3.00;99.90
20045;DHT22;10183;47.808;9.476;2023-11-22T08:30:07;3.00;99.90
20045;DHT22;10183;47.808;9.476;2023-11-22T08:32:58;3.00;99.90
20045;DHT22;10183;47.808;9.476;2023-11-22T08:35:44;2.90;99.90
20045;DHT22;10183;47.808;9.476;2023-11-22T08:38:36;2.90;99.90
20045;DHT22;10183;47.808;9.476;2023-11-22T08:41:22;2.90;99.90
20045;DHT22;10183;47.808;9.476;2023-11-22T08:44:09;2.80;99.90
20045;DHT22;10183;47.808;9.476;2023-11-22T08:46:55;2.80;99.90
20045;DHT22;10183;47.808;9.476;2023-11-22T08:49:41;2.70;99.90
20045;DHT22;10183;47.808;9.476;2023-11-22T08:52:27;2.70;99.90
20045;DHT22;10183;47.808;9.476;2023-11-22T08:55:16;2.70;99.90
20045;DHT22;10183;47.808;9.476;2023-11-22T08:58:02;2.60;99.90
20045;DHT22;10183;47.808;9.476;2023-11-22T09:00:48;2.60;99.90
20045;DHT22;10183;47.808;9.476;2023-11-22T09:03:34;2.50;99.90
20045;DHT22;10183;47.808;9.476;2023-11-22T09:06:20;2.40;99.90
20045;DHT22;10183;47.808;9.476;2023-11-22T09:09:06;2.40;99.90
20045;DHT22;10183;47.808;9.476;2023-11-22T09:11:53;2.30;99.90
20045;DHT22;10183;47.808;9.476;2023-11-22T09:14:40;2.30;99.90
20045;DHT22;10183;47.808;9.476;2023-11-22T09:17:28;2.30;99.90
20045;DHT22;10183;47.808;9.476;2023-11-22T09:20:15;2.40;99.90
20045;DHT22;10183;47.808;9.476;2023-11-22T09:23:02;2.30;99.90
20045;DHT22;10183;47.808;9.476;2023-11-22T09:25:51;2.30;99.90
20045;DHT22;10183;47.808;9.476;2023-11-22T09:28:37;2.40;99.90
20045;DHT22;10183;47.808;9.476;2023-11-22T09:31:22;2.40;99.90
20045;DHT22;10183;47.808;9.476;2023-11-22T09:34:09;2.40;99.90
20045;DHT22;10183;47.808;9.476;2023-11-22T09:36:55;2.40;99.90
20045;DHT22;10183;47.808;9.476;2023-11-22T09:39:41;2.40;99.90
20045;DHT22;10183;47.808;9.476;2023-11-22T09:42:27;2.50;99.90
20045;DHT22;10183;47.808;9.476;2023-11-22T09:45:13;2.70;99.90
20045;DHT22;10183;47.808;9.476;2023-11-22T09:48:13;2.90;99.90
20045;DHT22;10183;47.808;9.476;2023-11-22T09:51:26;3.20;99.90
20045;DHT22;10183;47.808;9.476;2023-11-22T09:54:13;3.20;99.90
20045;DHT22;10183;47.808;9.476;2023-11-22T09:57:01;3.30;99.90
20045;DHT22;10183;47.808;9.476;2023-11-22T09:59:50;3.60;99.90
20045;DHT22;10183;47.808;9.476;2023-11-22T10:02:38;3.70;99.90
20045;DHT22;10183;47.808;9.476;2023-11-22T10:05:24;3.80;99.90
20045;DHT22;10183;47.808;9.476;2023-11-22T10:08:14;3.60;99.90
20045;DHT22;10183;47.808;9.476;2023-11-22T10:11:00;3.30;99.90
20045;DHT22;10183;47.808;9.476;2023-11-22T10:13:49;3.20;99.90
20045;DHT22;10183;47.808;9.476;2023-11-22T10:16:36;3.20;99.90
20045;DHT22;10183;47.808;9.476;2023-11-22T10:19:23;3.20;99.90
20045;DHT22;10183;47.808;9.476;2023-11-22T10:22:10;3.20;99.90
20045;DHT22;10183;47.808;9.476;2023-11-22T10:25:01;3.40;99.90
20045;DHT22;10183;47.808;9.476;2023-11-22T10:27:47;3.30;99.90
20045;DHT22;10183;47.808;9.476;2023-11-22T10:30:33;3.20;99.90
20045;DHT22;10183;47.808;9.476;2023-11-22T10:33:19;3.20;99.90
20045;DHT22;10183;47.808;9.476;2023-11-22T10:36:09;3.10;99.90
20045;DHT22;10183;47.808;9.476;2023-11-22T10:38:55;3.30;99.90
20045;DHT22;10183;47.808;9.476;2023-11-22T10:41:42;3.30;99.90
20045;DHT22;10183;47.808;9.476;2023-11-22T10:44:29;3.40;99.90
20045;DHT22;10183;47.808;9.476;2023-11-22T10:47:15;3.70;99.90
20045;DHT22;10183;47.808;9.476;2023-11-22T10:50:06;3.80;99.90
20045;DHT22;10183;47.808;9.476;2023-11-22T10:52:58;3.80;99.90
20045;DHT22;10183;47.808;9.476;2023-11-22T10:55:46;3.80;99.90
20045;DHT22;10183;47.808;9.476;2023-11-22T10:58:33;4.00;99.90
20045;DHT22;10183;47.808;9.476;2023-11-22T11:01:20;4.10;99.90
20045;DHT22;10183;47.808;9.476;2023-11-22T11:04:16;3.90;99.90
20045;DHT22;10183;47.808;9.476;2023-11-22T11:07:05;4.10;99.90
20045;DHT22;10183;47.808;9.476;2023-11-22T11:09:53;4.30;99.90
20045;DHT22;10183;47.808;9.476;2023-11-22T11:12:40;4.50;99.90
20045;DHT22;10183;47.808;9.476;2023-11-22T11:15:26;4.30;99.90
20045;DHT22;10183;47.808;9.476;2023-11-22T11:18:16;4.20;99.90
20045;DHT22;10183;47.808;9.476;2023-11-22T11:21:08;4.20;99.90
20045;DHT22;10183;47.808;9.476;2023-11-22T11:23:57;4.30;99.90
20045;DHT22;10183;47.808;9.476;2023-11-22T11:26:49;3.90;99.90
20045;DHT22;10183;47.808;9.476;2023-11-22T11:29:38;3.80;99.90
20045;DHT22;10183;47.808;9.476;2023-11-22T11:32:32;4.00;99.90
20045;DHT22;10183;47.808;9.476;2023-11-22T11:35:18;4.10;99.90
20045;DHT22;10183;47.808;9.476;2023-11-22T11:38:04;4.10;99.90
20045;DHT22;10183;47.808;9.476;2023-11-22T11:40:52;4.30;99.90
20045;DHT22;10183;47.808;9.476;2023-11-22T11:43:48;4.20;99.90
20045;DHT22;10183;47.808;9.476;2023-11-22T11:46:36;4.10;99.90
20045;DHT22;10183;47.808;9.476;2023-11-22T11:49:22;4.00;99.90
20045;DHT22;10183;47.808;9.476;2023-11-22T11:52:08;4.00;99.90
20045;DHT22;10183;47.808;9.476;2023-11-22T11:54:54;3.80;99.90
20045;DHT22;10183;47.808;9.476;2023-11-22T11:57:41;3.90;99.90
20045;DHT22;10183;47.808;9.476;2023-11-22T12:00:27;3.60;99.90
20045;DHT22;10183;47.808;9.476;2023-11-22T12:03:14;3.70;99.90
20045;DHT22;10183;47.808;9.476;2023-11-22T12:06:06;3.70;99.90
20045;DHT22;10183;47.808;9.476;2023-11-22T12:08:52;3.80;99.90
20045;DHT22;10183;47.808;9.476;2023-11-22T12:11:38;3.70;99.90
20045;DHT22;10183;47.808;9.476;2023-11-22T12:14:24;3.70;99.90
20045;DHT22;10183;47.808;9.476;2023-11-22T12:17:11;3.60;99.90
20045;DHT22;10183;47.808;9.476;2023-11-22T12:20:14;3.30;99.90
20045;DHT22;10183;47.808;9.476;2023-11-22T12:23:01;3.20;99.90
20045;DHT22;10183;47.808;9.476;2023-11-22T12:25:47;3.40;99.90
20045;DHT22;10183;47.808;9.476;2023-11-22T12:28:35;3.50;99.90
20045;DHT22;10183;47.808;9.476;2023-11-22T12:31:21;3.70;99.90
20045;DHT22;10183;47.808;9.476;2023-11-22T12:34:07;3.60;99.90
20045;DHT22;10183;47.808;9.476;2023-11-22T12:36:53;3.60;99.90
20045;DHT22;10183;47.808;9.476;2023-11-22T12:39:40;3.40;99.90
20045;DHT22;10183;47.808;9.476;2023-11-22T12:42:27;3.50;99.90
20045;DHT22;10183;47.808;9.476;2023-11-22T12:45:21;3.60;99.90
20045;DHT22;10183;47.808;9.476;2023-11-22T12:48:20;3.50;99.90
20045;DHT22;10183;47.808;9.476;2023-11-22T12:51:17;3.60;99.90
20045;DHT22;10183;47.808;9.476;2023-11-22T12:54:03;3.60;99.90
20045;DHT22;10183;47.808;9.476;2023-11-22T12:56:50;3.60;99.90
20045;DHT22;10183;47.808;9.476;2023-11-22T12:59:39;3.30;99.90
20045;DHT22;10183;47.808;9.476;2023-11-22T13:02:26;3.20;99.90
20045;DHT22;10183;47.808;9.476;2023-11-22T13:05:12;3.20;99.90
20045;DHT22;10183;47.808;9.476;2023-11-22T13:08:01;3.30;99.90
20045;DHT22;10183;47.808;9.476;2023-11-22T13:10:47;3.40;99.90
20045;DHT22;10183;47.808;9.476;2023-11-22T13:13:36;3.30;99.90
20045;DHT22;10183;47.808;9.476;2023-11-22T13:16:22;3.20;99.90
20045;DHT22;10183;47.808;9.476;2023-11-22T13:19:08;3.20;99.90
20045;DHT22;10183;47.808;9.476;2023-11-22T13:21:55;3.10;99.90
20045;DHT22;10183;47.808;9.476;2023-11-22T13:24:40;3.20;99.90
20045;DHT22;10183;47.808;9.476;2023-11-22T13:27:27;3.20;99.90
20045;DHT22;10183;47.808;9.476;2023-11-22T13:30:16;3.30;99.90
20045;DHT22;10183;47.808;9.476;2023-11-22T13:33:08;3.20;99.90
20045;DHT22;10183;47.808;9.476;2023-11-22T13:35:54;3.20;99.90
20045;DHT22;10183;47.808;9.476;2023-11-22T13:38:40;3.10;99.90
20045;DHT22;10183;47.808;9.476;2023-11-22T13:41:26;3.20;99.90
20045;DHT22;10183;47.808;9.476;2023-11-22T13:44:12;3.20;99.90
20045;DHT22;10183;47.808;9.476;2023-11-22T13:46:59;3.20;99.90
20045;DHT22;10183;47.808;9.476;2023-11-22T13:49:45;3.10;99.90
20045;DHT22;10183;47.808;9.476;2023-11-22T13:52:31;3.10;99.90
20045;DHT22;10183;47.808;9.476;2023-11-22T13:55:18;3.10;99.90
20045;DHT22;10183;47.808;9.476;2023-11-22T13:58:11;3.00;99.90
20045;DHT22;10183;47.808;9.476;2023-11-22T14:00:57;2.90;99.90
20045;DHT22;10183;47.808;9.476;2023-11-22T14:03:43;2.80;99.90
20045;DHT22;10183;47.808;9.476;2023-11-22T14:06:29;2.70;99.90
20045;DHT22;10183;47.808;9.476;2023-11-22T14:09:15;2.60;99.90
20045;DHT22;10183;47.808;9.476;2023-11-22T14:12:02;2.60;99.90
20045;DHT22;10183;47.808;9.476;2023-11-22T14:14:48;2.60;99.90
20045;DHT22;10183;47.808;9.476;2023-11-22T14:17:34;2.50;99.90
20045;DHT22;10183;47.808;9.476;2023-11-22T14:20:20;2.50;99.90
20045;DHT22;10183;47.808;9.476;2023-11-22T14:23:06;2.40;99.90
20045;DHT22;10183;47.808;9.476;2023-11-22T14:25:53;2.40;99.90
20045;DHT22;10183;47.808;9.476;2023-11-22T14:28:39;2.30;99.90
20045;DHT22;10183;47.808;9.476;2023-11-22T14:31:26;2.30;99.90
20045;DHT22;10183;47.808;9.476;2023-11-22T14:34:13;2.30;99.90
20045;DHT22;10183;47.808;9.476;2023-11-22T14:36:59;2.30;99.90
20045;DHT22;10183;47.808;9.476;2023-11-22T14:39:45;2.30;99.90
20045;DHT22;10183;47.808;9.476;2023-11-22T14:42:31;2.20;99.90
20045;DHT22;10183;47.808;9.476;2023-11-22T14:45:17;2.20;99.90
20045;DHT22;10183;47.808;9.476;2023-11-22T14:48:05;2.20;99.90
20045;DHT22;10183;47.808;9.476;2023-11-22T14:50:52;2.10;99.90
20045;DHT22;10183;47.808;9.476;2023-11-22T14:53:38;2.10;99.90
20045;DHT22;10183;47.808;9.476;2023-11-22T14:56:26;2.00;99.90
20045;DHT22;10183;47.808;9.476;2023-11-22T14:59:12;2.00;99.90
20045;DHT22;10183;47.808;9.476;2023-11-22T15:02:00;2.00;99.90
20045;DHT22;10183;47.808;9.476;2023-11-22T15:04:48;2.00;99.90
20045;DHT22;10183;47.808;9.476;2023-11-22T15:07:34;2.00;99.90
20045;DHT22;10183;47.808;9.476;2023-11-22T15:10:21;1.90;99.90
20045;DHT22;10183;47.808;9.476;2023-11-22T15:13:07;1.90;99.90
20045;DHT22;10183;47.808;9.476;2023-11-22T15:15:55;1.80;99.90
20045;DHT22;10183;47.808;9.476;2023-11-22T15:18:42;1.90;99.90
20045;DHT22;10183;47.808;9.476;2023-11-22T15:21:29;1.80;99.90
20045;DHT22;10183;47.808;9.476;2023-11-22T15:24:15;1.80;99.90
20045;DHT22;10183;47.808;9.476;2023-11-22T15:27:01;1.70;99.90
20045;DHT22;10183;47.808;9.476;2023-11-22T15:29:47;1.60;99.90
20045;DHT22;10183;47.808;9.476;2023-11-22T15:32:33;1.70;99.90
20045;DHT22;10183;47.808;9.476;2023-11-22T15:35:19;1.70;99.90
20045;DHT22;10183;47.808;9.476;2023-11-22T15:38:05;1.70;99.90
20045;DHT22;10183;47.808;9.476;2023-11-22T15:40:51;1.70;99.90
20045;DHT22;10183;47.808;9.476;2023-11-22T15:43:37;1.70;99.90
20045;DHT22;10183;47.808;9.476;2023-11-22T15:46:23;1.70;99.90
20045;DHT22;10183;47.808;9.476;2023-11-22T15:49:10;1.70;99.90
20045;DHT22;10183;47.808;9.476;2023-11-22T15:51:56;1.80;99.90
20045;DHT22;10183;47.808;9.476;2023-11-22T15:54:42;1.80;99.90
20045;DHT22;10183;47.808;9.476;2023-11-22T15:57:28;1.70;99.90
20045;DHT22;10183;47.808;9.476;2023-11-22T16:00:14;1.70;99.90
20045;DHT22;10183;47.808;9.476;2023-11-22T16:03:01;1.60;99.90
20045;DHT22;10183;47.808;9.476;2023-11-22T16:05:49;1.70;99.90
20045;DHT22;10183;47.808;9.476;2023-11-22T16:08:37;1.70;99.90
20045;DHT22;10183;47.808;9.476;2023-11-22T16:11:23;1.60;99.90
20045;DHT22;10183;47.808;9.476;2023-11-22T16:14:09;1.60;99.90
20045;DHT22;10183;47.808;9.476;2023-11-22T16:16:57;1.50;99.90
20045;DHT22;10183;47.808;9.476;2023-11-22T16:19:45;1.50;99.90
20045;DHT22;10183;47.808;9.476;2023-11-22T16:22:31;1.60;99.90
20045;DHT22;10183;47.808;9.476;2023-11-22T16:25:17;1.60;99.90
20045;DHT22;10183;47.808;9.476;2023-11-22T16:28:08;1.60;99.90
20045;DHT22;10183;47.808;9.476;2023-11-22T16:30:54;1.60;99.90
20045;DHT22;10183;47.808;9.476;2023-11-22T16:33:40;1.60;99.90
20045;DHT22;10183;47.808;9.476;2023-11-22T16:36:26;1.60;99.90
20045;DHT22;10183;47.808;9.476;2023-11-22T16:39:12;1.60;99.90
20045;DHT22;10183;47.808;9.476;2023-11-22T16:42:00;1.50;99.90
20045;DHT22;10183;47.808;9.476;2023-11-22T16:44:47;1.50;99.90
20045;DHT22;10183;47.808;9.476;2023-11-22T16:47:33;1.60;99.90
20045;DHT22;10183;47.808;9.476;2023-11-22T16:50:19;1.60;99.90
20045;DHT22;10183;47.808;9.476;2023-11-22T16:53:05;1.60;99.90
20045;DHT22;10183;47.808;9.476;2023-11-22T16:55:51;1.60;99.90
20045;DHT22;10183;47.808;9.476;2023-11-22T16:58:38;1.60;99.90
20045;DHT22;10183;47.808;9.476;2023-11-22T17:01:24;1.60;99.90
20045;DHT22;10183;47.808;9.476;2023-11-22T17:04:10;1.50;99.90
20045;DHT22;10183;47.808;9.476;2023-11-22T17:06:56;1.50;99.90
20045;DHT22;10183;47.808;9.476;2023-11-22T17:09:44;1.60;99.90
20045;DHT22;10183;47.808;9.476;2023-11-22T17:12:30;1.50;99.90
20045;DHT22;10183;47.808;9.476;2023-11-22T17:15:16;1.50;99.90
20045;DHT22;10183;47.808;9.476;2023-11-22T17:18:04;1.50;99.90
20045;DHT22;10183;47.808;9.476;2023-11-22T17:20:51;1.50;99.90
20045;DHT22;10183;47.808;9.476;2023-11-22T17:23:37;1.50;99.90
20045;DHT22;10183;47.808;9.476;2023-11-22T17:26:23;1.50;99.90
20045;DHT22;10183;47.808;9.476;2023-11-22T17:29:09;1.50;99.90
20045;DHT22;10183;47.808;9.476;2023-11-22T17:31:55;1.50;99.90
20045;DHT22;10183;47.808;9.476;2023-11-22T17:34:41;1.60;99.90
20045;DHT22;10183;47.808;9.476;2023-11-22T17:37:27;1.60;99.90
20045;DHT22;10183;47.808;9.476;2023-11-22T17:40:13;1.60;99.90
20045;DHT22;10183;47.808;9.476;2023-11-22T17:42:59;1.60;99.90
20045;DHT22;10183;47.808;9.476;2023-11-22T17:45:46;1.60;99.90
20045;DHT22;10183;47.808;9.476;2023-11-22T17:48:33;1.60;99.90
20045;DHT22;10183;47.808;9.476;2023-11-22T17:51:19;1.70;99.90